sensor_id;sensor_type;location;lat;lon;timestamp;temperature;humidity
77865;DHT22;67061;48.524;9.040;2023-06-04T00:02:07;14.20;74.00
77865;DHT22;67061;48.524;9.040;2023-06-04T00:04:35;14.20;74.00
77865;DHT22;67061;48.524;9.040;2023-06-04T00:07:03;14.10;74.30
77865;DHT22;67061;48.524;9.040;2023-06-04T00:09:30;14.10;75.70
77865;DHT22;67061;48.524;9.040;2023-06-04T00:11:57;14.00;75.50
77865;DHT22;67061;48.524;9.040;2023-06-04T00:14:24;13.90;75.60
77865;DHT22;67061;48.524;9.040;2023-06-04T00:16:51;13.90;76.60
77865;DHT22;67061;48.524;9.040;2023-06-04T00:19:18;13.90;76.80
77865;DHT22;67061;48.524;9.040;2023-06-04T00:21:45;13.80;76.20
77865;DHT22;67061;48.524;9.040;2023-06-04T00:24:13;13.70;77.40
77865;DHT22;67061;48.524;9.040;2023-06-04T00:26:40;13.70;77.10
77865;DHT22;67061;48.524;9.040;2023-06-04T00:29:07;13.60;76.10
77865;DHT22;67061;48.524;9.040;2023-06-04T00:31:34;13.60;76.90
77865;DHT22;67061;48.524;9.040;2023-06-04T00:34:01;13.50;76.70
77865;DHT22;67061;48.524;9.040;2023-06-04T00:36:28;13.50;77.50
77865;DHT22;67061;48.524;9.040;2023-06-04T00:38:55;13.50;77.70
77865;DHT22;67061;48.524;9.040;2023-06-04T00:41:23;13.40;77.80
77865;DHT22;67061;48.524;9.040;2023-06-04T00:43:51;13.40;78.50
77865;DHT22;67061;48.524;9.040;2023-06-04T00:46:22;13.30;77.90
77865;DHT22;67061;48.524;9.040;2023-06-04T00:48:50;13.30;78.70
77865;DHT22;67061;48.524;9.040;2023-06-04T00:51:18;13.30;78.40
77865;DHT22;67061;48.524;9.040;2023-06-04T00:53:46;13.20;78.70
77865;DHT22;67061;48.524;9.040;2023-06-04T00:56:13;13.10;78.50
77865;DHT22;67061;48.524;9.040;2023-06-04T00:58:41;13.10;79.00
77865;DHT22;67061;48.524;9.040;2023-06-04T01:01:14;13.00;79.20
77865;DHT22;67061;48.524;9.040;2023-06-04T01:03:45;13.00;79.50
77865;DHT22;67061;48.524;9.040;2023-06-04T01:06:18;12.90;79.80
77865;DHT22;67061;48.524;9.040;2023-06-04T01:08:48;12.80;78.90
77865;DHT22;67061;48.524;9.040;2023-06-04T01:11:16;12.70;80.20
77865;DHT22;67061;48.524;9.040;2023-06-04T01:13:45;12.70;80.50
77865;DHT22;67061;48.524;9.040;2023-06-04T01:16:13;12.60;80.80
77865;DHT22;67061;48.524;9.040;2023-06-04T01:18:41;12.60;81.10
77865;DHT22;67061;48.524;9.040;2023-06-04T01:21:11;12.50;81.20
77865;DHT22;67061;48.524;9.040;2023-06-04T01:23:47;12.50;81.30
77865;DHT22;67061;48.524;9.040;2023-06-04T01:26:25;12.50;81.80
77865;DHT22;67061;48.524;9.040;2023-06-04T01:28:54;12.50;82.40
77865;DHT22;67061;48.524;9.040;2023-06-04T01:31:23;12.40;80.90
77865;DHT22;67061;48.524;9.040;2023-06-04T01:33:51;12.30;82.50
77865;DHT22;67061;48.524;9.040;2023-06-04T01:36:18;12.30;82.80
77865;DHT22;67061;48.524;9.040;2023-06-04T01:38:45;12.20;82.30
77865;DHT22;67061;48.524;9.040;2023-06-04T01:41:13;12.20;82.10
77865;DHT22;67061;48.524;9.040;2023-06-04T01:43:40;12.10;82.80
77865;DHT22;67061;48.524;9.040;2023-06-04T01:46:08;12.20;82.70
77865;DHT22;67061;48.524;9.040;2023-06-04T01:48:35;12.10;83.40
77865;DHT22;67061;48.524;9.040;2023-06-04T01:51:03;12.10;83.50
77865;DHT22;67061;48.524;9.040;2023-06-04T01:53:31;12.10;83.00
77865;DHT22;67061;48.524;9.040;2023-06-04T01:55:57;12.10;82.60
77865;DHT22;67061;48.524;9.040;2023-06-04T01:58:25;12.00;83.90
77865;DHT22;67061;48.524;9.040;2023-06-04T02:00:54;12.00;83.30
77865;DHT22;67061;48.524;9.040;2023-06-04T02:03:23;12.00;83.00
77865;DHT22;67061;48.524;9.040;2023-06-04T02:05:50;12.00;83.60
77865;DHT22;67061;48.524;9.040;2023-06-04T02:08:17;11.90;83.30
77865;DHT22;67061;48.524;9.040;2023-06-04T02:10:45;11.90;82.30
77865;DHT22;67061;48.524;9.040;2023-06-04T02:13:13;11.70;82.60
77865;DHT22;67061;48.524;9.040;2023-06-04T02:15:41;11.60;82.90
77865;DHT22;67061;48.524;9.040;2023-06-04T02:18:13;11.50;83.20
77865;DHT22;67061;48.524;9.040;2023-06-04T02:20:43;11.50;83.70
77865;DHT22;67061;48.524;9.040;2023-06-04T02:23:10;11.40;84.40
77865;DHT22;67061;48.524;9.040;2023-06-04T02:25:37;11.40;86.00
77865;DHT22;67061;48.524;9.040;2023-06-04T02:28:04;11.40;85.70
77865;DHT22;67061;48.524;9.040;2023-06-04T02:30:31;11.40;85.40
77865;DHT22;67061;48.524;9.040;2023-06-04T02:32:58;11.40;85.30
77865;DHT22;67061;48.524;9.040;2023-06-04T02:35:26;11.20;85.20
77865;DHT22;67061;48.524;9.040;2023-06-04T02:37:55;11.10;85.60
77865;DHT22;67061;48.524;9.040;2023-06-04T02:40:23;11.10;87.10
77865;DHT22;67061;48.524;9.040;2023-06-04T02:42:51;11.10;86.60
77865;DHT22;67061;48.524;9.040;2023-06-04T02:45:18;11.10;85.70
77865;DHT22;67061;48.524;9.040;2023-06-04T02:47:45;11.10;85.70
77865;DHT22;67061;48.524;9.040;2023-06-04T02:50:13;11.00;86.20
77865;DHT22;67061;48.524;9.040;2023-06-04T02:52:40;10.90;86.60
77865;DHT22;67061;48.524;9.040;2023-06-04T02:55:09;10.90;86.60
77865;DHT22;67061;48.524;9.040;2023-06-04T02:57:39;10.90;86.60
77865;DHT22;67061;48.524;9.040;2023-06-04T03:00:08;10.80;87.00
77865;DHT22;67061;48.524;9.040;2023-06-04T03:02:41;10.80;87.60
77865;DHT22;67061;48.524;9.040;2023-06-04T03:05:09;10.80;87.60
77865;DHT22;67061;48.524;9.040;2023-06-04T03:07:38;10.80;87.20
77865;DHT22;67061;48.524;9.040;2023-06-04T03:10:08;10.70;87.60
77865;DHT22;67061;48.524;9.040;2023-06-04T03:12:36;10.70;87.60
77865;DHT22;67061;48.524;9.040;2023-06-04T03:15:03;10.60;87.70
77865;DHT22;67061;48.524;9.040;2023-06-04T03:17:30;10.60;87.90
77865;DHT22;67061;48.524;9.040;2023-06-04T03:19:58;10.50;88.60
77865;DHT22;67061;48.524;9.040;2023-06-04T03:22:25;10.60;88.10
77865;DHT22;67061;48.524;9.040;2023-06-04T03:24:52;10.50;88.00
77865;DHT22;67061;48.524;9.040;2023-06-04T03:27:20;10.50;88.90
77865;DHT22;67061;48.524;9.040;2023-06-04T03:29:47;10.50;88.70
77865;DHT22;67061;48.524;9.040;2023-06-04T03:32:14;10.50;88.20
77865;DHT22;67061;48.524;9.040;2023-06-04T03:34:42;10.50;88.60
77865;DHT22;67061;48.524;9.040;2023-06-04T03:37:09;10.50;88.20
77865;DHT22;67061;48.524;9.040;2023-06-04T03:39:36;10.50;88.70
77865;DHT22;67061;48.524;9.040;2023-06-04T03:42:03;10.40;88.90
77865;DHT22;67061;48.524;9.040;2023-06-04T03:44:32;10.40;88.90
77865;DHT22;67061;48.524;9.040;2023-06-04T03:46:59;10.30;89.10
77865;DHT22;67061;48.524;9.040;2023-06-04T03:49:26;10.30;88.20
77865;DHT22;67061;48.524;9.040;2023-06-04T03:51:53;10.30;89.20
77865;DHT22;67061;48.524;9.040;2023-06-04T03:54:21;10.20;89.20
77865;DHT22;67061;48.524;9.040;2023-06-04T03:56:48;10.10;89.60
77865;DHT22;67061;48.524;9.040;2023-06-04T03:59:15;10.10;89.70
77865;DHT22;67061;48.524;9.040;2023-06-04T04:01:43;10.10;90.30
77865;DHT22;67061;48.524;9.040;2023-06-04T04:04:10;10.20;89.80
77865;DHT22;67061;48.524;9.040;2023-06-04T04:06:37;10.20;90.20
77865;DHT22;67061;48.524;9.040;2023-06-04T04:09:04;10.20;90.20
77865;DHT22;67061;48.524;9.040;2023-06-04T04:11:32;10.20;90.30
77865;DHT22;67061;48.524;9.040;2023-06-04T04:14:19;10.20;90.50
77865;DHT22;67061;48.524;9.040;2023-06-04T04:17:07;10.20;89.70
77865;DHT22;67061;48.524;9.040;2023-06-04T04:19:37;10.20;90.10
77865;DHT22;67061;48.524;9.040;2023-06-04T04:22:04;10.20;90.40
77865;DHT22;67061;48.524;9.040;2023-06-04T04:24:32;10.30;90.20
77865;DHT22;67061;48.524;9.040;2023-06-04T04:27:01;10.30;89.90
77865;DHT22;67061;48.524;9.040;2023-06-04T04:29:30;10.30;89.90
77865;DHT22;67061;48.524;9.040;2023-06-04T04:31:59;10.30;90.30
77865;DHT22;67061;48.524;9.040;2023-06-04T04:34:28;10.40;91.10
77865;DHT22;67061;48.524;9.040;2023-06-04T04:36:58;10.40;90.60
77865;DHT22;67061;48.524;9.040;2023-06-04T04:39:25;10.40;90.80
77865;DHT22;67061;48.524;9.040;2023-06-04T04:41:53;10.50;90.30
77865;DHT22;67061;48.524;9.040;2023-06-04T04:44:21;10.60;90.80
77865;DHT22;67061;48.524;9.040;2023-06-04T04:46:48;10.60;91.70
77865;DHT22;67061;48.524;9.040;2023-06-04T04:49:15;10.70;91.70
77865;DHT22;67061;48.524;9.040;2023-06-04T04:51:43;10.80;91.90
77865;DHT22;67061;48.524;9.040;2023-06-04T04:54:10;10.90;91.90
77865;DHT22;67061;48.524;9.040;2023-06-04T04:56:37;11.00;92.00
77865;DHT22;67061;48.524;9.040;2023-06-04T04:59:04;11.10;91.30
77865;DHT22;67061;48.524;9.040;2023-06-04T05:01:31;11.10;91.10
77865;DHT22;67061;48.524;9.040;2023-06-04T05:03:58;11.20;91.70
77865;DHT22;67061;48.524;9.040;2023-06-04T05:06:24;11.30;90.80
77865;DHT22;67061;48.524;9.040;2023-06-04T05:08:53;11.40;90.10
77865;DHT22;67061;48.524;9.040;2023-06-04T05:11:20;11.50;90.20
77865;DHT22;67061;48.524;9.040;2023-06-04T05:13:47;11.50;89.50
77865;DHT22;67061;48.524;9.040;2023-06-04T05:16:14;11.50;88.40
77865;DHT22;67061;48.524;9.040;2023-06-04T05:18:42;11.50;88.70
77865;DHT22;67061;48.524;9.040;2023-06-04T05:21:10;11.40;89.10
77865;DHT22;67061;48.524;9.040;2023-06-04T05:23:38;11.40;90.10
77865;DHT22;67061;48.524;9.040;2023-06-04T05:26:07;11.50;90.00
77865;DHT22;67061;48.524;9.040;2023-06-04T05:28:33;11.70;89.30
77865;DHT22;67061;48.524;9.040;2023-06-04T05:31:01;11.70;89.00
77865;DHT22;67061;48.524;9.040;2023-06-04T05:33:30;11.80;89.00
77865;DHT22;67061;48.524;9.040;2023-06-04T05:35:57;11.90;88.80
77865;DHT22;67061;48.524;9.040;2023-06-04T05:38:25;12.00;88.60
77865;DHT22;67061;48.524;9.040;2023-06-04T05:40:54;12.00;88.00
77865;DHT22;67061;48.524;9.040;2023-06-04T05:43:22;12.10;88.00
77865;DHT22;67061;48.524;9.040;2023-06-04T05:45:49;12.10;87.20
77865;DHT22;67061;48.524;9.040;2023-06-04T05:48:17;12.20;86.60
77865;DHT22;67061;48.524;9.040;2023-06-04T05:50:44;12.20;86.60
77865;DHT22;67061;48.524;9.040;2023-06-04T05:53:12;12.20;86.50
77865;DHT22;67061;48.524;9.040;2023-06-04T05:55:39;12.30;85.70
77865;DHT22;67061;48.524;9.040;2023-06-04T05:58:06;12.50;85.30
77865;DHT22;67061;48.524;9.040;2023-06-04T06:00:34;12.60;84.60
77865;DHT22;67061;48.524;9.040;2023-06-04T06:03:01;12.70;84.40
77865;DHT22;67061;48.524;9.040;2023-06-04T06:05:33;12.90;83.70
77865;DHT22;67061;48.524;9.040;2023-06-04T06:07:59;13.00;82.70
77865;DHT22;67061;48.524;9.040;2023-06-04T06:10:27;13.20;81.30
77865;DHT22;67061;48.524;9.040;2023-06-04T06:12:55;13.30;81.90
77865;DHT22;67061;48.524;9.040;2023-06-04T06:15:22;13.50;81.20
77865;DHT22;67061;48.524;9.040;2023-06-04T06:17:50;13.50;80.90
77865;DHT22;67061;48.524;9.040;2023-06-04T06:20:18;13.60;79.70
77865;DHT22;67061;48.524;9.040;2023-06-04T06:22:45;13.70;79.40
77865;DHT22;67061;48.524;9.040;2023-06-04T06:25:11;13.90;78.60
77865;DHT22;67061;48.524;9.040;2023-06-04T06:27:39;13.90;78.30
77865;DHT22;67061;48.524;9.040;2023-06-04T06:30:07;14.10;78.80
77865;DHT22;67061;48.524;9.040;2023-06-04T06:32:34;14.20;76.70
77865;DHT22;67061;48.524;9.040;2023-06-04T06:35:03;14.30;76.50
77865;DHT22;67061;48.524;9.040;2023-06-04T06:37:31;14.50;72.20
77865;DHT22;67061;48.524;9.040;2023-06-04T06:39:57;14.70;72.70
77865;DHT22;67061;48.524;9.040;2023-06-04T06:42:24;14.90;70.90
77865;DHT22;67061;48.524;9.040;2023-06-04T06:44:51;15.00;72.10
77865;DHT22;67061;48.524;9.040;2023-06-04T06:47:18;15.20;71.90
77865;DHT22;67061;48.524;9.040;2023-06-04T06:49:45;15.40;67.00
77865;DHT22;67061;48.524;9.040;2023-06-04T06:52:13;15.40;68.70
77865;DHT22;67061;48.524;9.040;2023-06-04T06:54:44;15.50;68.60
77865;DHT22;67061;48.524;9.040;2023-06-04T06:57:11;15.60;67.80
77865;DHT22;67061;48.524;9.040;2023-06-04T06:59:38;15.60;65.70
77865;DHT22;67061;48.524;9.040;2023-06-04T07:02:05;15.60;66.00
77865;DHT22;67061;48.524;9.040;2023-06-04T07:04:32;15.80;65.30
77865;DHT22;67061;48.524;9.040;2023-06-04T07:06:59;16.00;65.00
77865;DHT22;67061;48.524;9.040;2023-06-04T07:09:28;16.00;64.40
77865;DHT22;67061;48.524;9.040;2023-06-04T07:11:54;16.10;62.80
77865;DHT22;67061;48.524;9.040;2023-06-04T07:14:21;16.40;60.90
77865;DHT22;67061;48.524;9.040;2023-06-04T07:16:48;16.40;59.70
77865;DHT22;67061;48.524;9.040;2023-06-04T07:19:15;16.40;60.90
77865;DHT22;67061;48.524;9.040;2023-06-04T07:21:42;16.40;59.20
77865;DHT22;67061;48.524;9.040;2023-06-04T07:24:09;16.60;58.30
77865;DHT22;67061;48.524;9.040;2023-06-04T07:26:37;16.80;57.40
77865;DHT22;67061;48.524;9.040;2023-06-04T07:29:04;16.80;57.90
77865;DHT22;67061;48.524;9.040;2023-06-04T07:31:31;16.90;58.40
77865;DHT22;67061;48.524;9.040;2023-06-04T07:33:58;17.00;57.20
77865;DHT22;67061;48.524;9.040;2023-06-04T07:36:25;17.00;56.40
77865;DHT22;67061;48.524;9.040;2023-06-04T07:38:52;17.10;58.20
77865;DHT22;67061;48.524;9.040;2023-06-04T07:41:18;17.20;57.60
77865;DHT22;67061;48.524;9.040;2023-06-04T07:43:47;17.20;57.90
77865;DHT22;67061;48.524;9.040;2023-06-04T07:46:14;17.40;56.70
77865;DHT22;67061;48.524;9.040;2023-06-04T07:48:44;17.50;56.40
77865;DHT22;67061;48.524;9.040;2023-06-04T07:51:12;17.60;56.90
77865;DHT22;67061;48.524;9.040;2023-06-04T07:53:39;17.80;57.00
77865;DHT22;67061;48.524;9.040;2023-06-04T07:56:06;17.80;57.50
77865;DHT22;67061;48.524;9.040;2023-06-04T07:58:33;17.90;55.90
77865;DHT22;67061;48.524;9.040;2023-06-04T08:01:02;18.00;55.60
77865;DHT22;67061;48.524;9.040;2023-06-04T08:03:29;18.10;55.50
77865;DHT22;67061;48.524;9.040;2023-06-04T08:05:57;18.10;55.70
77865;DHT22;67061;48.524;9.040;2023-06-04T08:08:24;18.20;56.20
77865;DHT22;67061;48.524;9.040;2023-06-04T08:10:51;18.30;55.90
77865;DHT22;67061;48.524;9.040;2023-06-04T08:13:18;18.40;55.80
77865;DHT22;67061;48.524;9.040;2023-06-04T08:15:46;18.40;54.90
77865;DHT22;67061;48.524;9.040;2023-06-04T08:18:14;18.50;57.60
77865;DHT22;67061;48.524;9.040;2023-06-04T08:20:41;18.60;55.50
77865;DHT22;67061;48.524;9.040;2023-06-04T08:23:08;18.70;54.70
77865;DHT22;67061;48.524;9.040;2023-06-04T08:25:35;18.80;55.90
77865;DHT22;67061;48.524;9.040;2023-06-04T08:28:02;18.90;54.70
77865;DHT22;67061;48.524;9.040;2023-06-04T08:30:29;19.00;55.90
77865;DHT22;67061;48.524;9.040;2023-06-04T08:32:56;19.20;53.70
77865;DHT22;67061;48.524;9.040;2023-06-04T08:35:24;19.30;54.10
77865;DHT22;67061;48.524;9.040;2023-06-04T08:37:51;19.30;54.90
77865;DHT22;67061;48.524;9.040;2023-06-04T08:40:18;19.40;53.70
77865;DHT22;67061;48.524;9.040;2023-06-04T08:42:46;19.50;54.30
77865;DHT22;67061;48.524;9.040;2023-06-04T08:45:14;19.70;53.40
77865;DHT22;67061;48.524;9.040;2023-06-04T08:47:43;19.70;52.90
77865;DHT22;67061;48.524;9.040;2023-06-04T08:50:12;19.70;51.60
77865;DHT22;67061;48.524;9.040;2023-06-04T08:52:42;19.70;52.60
77865;DHT22;67061;48.524;9.040;2023-06-04T08:55:11;19.80;52.50
77865;DHT22;67061;48.524;9.040;2023-06-04T08:57:39;20.00;53.20
77865;DHT22;67061;48.524;9.040;2023-06-04T09:00:07;20.00;53.00
77865;DHT22;67061;48.524;9.040;2023-06-04T09:02:35;20.20;51.80
77865;DHT22;67061;48.524;9.040;2023-06-04T09:05:04;20.30;51.50
77865;DHT22;67061;48.524;9.040;2023-06-04T09:07:35;20.30;51.90
77865;DHT22;67061;48.524;9.040;2023-06-04T09:10:07;20.30;52.80
77865;DHT22;67061;48.524;9.040;2023-06-04T09:12:36;20.50;51.00
77865;DHT22;67061;48.524;9.040;2023-06-04T09:15:08;20.60;49.90
77865;DHT22;67061;48.524;9.040;2023-06-04T09:17:35;20.70;49.20
77865;DHT22;67061;48.524;9.040;2023-06-04T09:20:02;20.70;50.80
77865;DHT22;67061;48.524;9.040;2023-06-04T09:22:34;20.90;49.20
77865;DHT22;67061;48.524;9.040;2023-06-04T09:25:05;20.90;48.60
77865;DHT22;67061;48.524;9.040;2023-06-04T09:27:38;20.90;49.70
77865;DHT22;67061;48.524;9.040;2023-06-04T09:30:06;20.90;50.30
77865;DHT22;67061;48.524;9.040;2023-06-04T09:32:34;21.00;48.00
77865;DHT22;67061;48.524;9.040;2023-06-04T09:35:09;21.00;48.30
77865;DHT22;67061;48.524;9.040;2023-06-04T09:37:37;21.00;46.90
77865;DHT22;67061;48.524;9.040;2023-06-04T09:40:07;21.10;46.20
77865;DHT22;67061;48.524;9.040;2023-06-04T09:42:42;21.10;46.30
77865;DHT22;67061;48.524;9.040;2023-06-04T09:45:09;21.20;46.70
77865;DHT22;67061;48.524;9.040;2023-06-04T09:47:41;21.20;47.60
77865;DHT22;67061;48.524;9.040;2023-06-04T09:50:10;21.30;47.50
77865;DHT22;67061;48.524;9.040;2023-06-04T09:52:37;21.40;47.30
77865;DHT22;67061;48.524;9.040;2023-06-04T09:55:16;21.40;46.40
77865;DHT22;67061;48.524;9.040;2023-06-04T09:57:49;21.40;46.00
77865;DHT22;67061;48.524;9.040;2023-06-04T10:00:17;21.50;47.90
77865;DHT22;67061;48.524;9.040;2023-06-04T10:02:44;21.60;45.80
77865;DHT22;67061;48.524;9.040;2023-06-04T10:05:13;21.50;45.90
77865;DHT22;67061;48.524;9.040;2023-06-04T10:07:42;21.50;46.00
77865;DHT22;67061;48.524;9.040;2023-06-04T10:10:12;21.60;47.70
77865;DHT22;67061;48.524;9.040;2023-06-04T10:12:42;21.70;46.70
77865;DHT22;67061;48.524;9.040;2023-06-04T10:15:11;21.80;45.70
77865;DHT22;67061;48.524;9.040;2023-06-04T10:17:39;21.80;45.40
77865;DHT22;67061;48.524;9.040;2023-06-04T10:20:07;21.70;46.70
77865;DHT22;67061;48.524;9.040;2023-06-04T10:22:36;21.70;46.00
77865;DHT22;67061;48.524;9.040;2023-06-04T10:25:03;21.90;44.90
77865;DHT22;67061;48.524;9.040;2023-06-04T10:27:31;21.90;45.40
77865;DHT22;67061;48.524;9.040;2023-06-04T10:30:02;21.90;46.00
77865;DHT22;67061;48.524;9.040;2023-06-04T10:32:30;22.00;45.30
77865;DHT22;67061;48.524;9.040;2023-06-04T10:34:57;22.00;44.90
77865;DHT22;67061;48.524;9.040;2023-06-04T10:37:25;21.90;45.20
77865;DHT22;67061;48.524;9.040;2023-06-04T10:39:53;21.90;46.10
77865;DHT22;67061;48.524;9.040;2023-06-04T10:42:20;22.20;44.70
77865;DHT22;67061;48.524;9.040;2023-06-04T10:44:48;22.30;43.90
77865;DHT22;67061;48.524;9.040;2023-06-04T10:47:21;22.20;46.10
77865;DHT22;67061;48.524;9.040;2023-06-04T10:49:49;22.30;44.50
77865;DHT22;67061;48.524;9.040;2023-06-04T10:52:16;22.30;44.60
77865;DHT22;67061;48.524;9.040;2023-06-04T10:54:45;22.30;44.60
77865;DHT22;67061;48.524;9.040;2023-06-04T10:57:15;22.50;44.50
77865;DHT22;67061;48.524;9.040;2023-06-04T10:59:53;22.50;46.20
77865;DHT22;67061;48.524;9.040;2023-06-04T11:02:21;22.70;46.40
77865;DHT22;67061;48.524;9.040;2023-06-04T11:04:59;23.00;43.20
77865;DHT22;67061;48.524;9.040;2023-06-04T11:07:29;23.10;43.10
77865;DHT22;67061;48.524;9.040;2023-06-04T11:09:56;23.20;43.60
77865;DHT22;67061;48.524;9.040;2023-06-04T11:12:23;23.20;43.30
77865;DHT22;67061;48.524;9.040;2023-06-04T11:14:56;23.40;43.60
77865;DHT22;67061;48.524;9.040;2023-06-04T11:17:25;23.60;42.50
77865;DHT22;67061;48.524;9.040;2023-06-04T11:19:52;23.70;42.00
77865;DHT22;67061;48.524;9.040;2023-06-04T11:22:21;23.60;41.60
77865;DHT22;67061;48.524;9.040;2023-06-04T11:24:48;23.30;41.00
77865;DHT22;67061;48.524;9.040;2023-06-04T11:27:17;23.20;41.60
77865;DHT22;67061;48.524;9.040;2023-06-04T11:29:49;23.10;43.50
77865;DHT22;67061;48.524;9.040;2023-06-04T11:32:21;23.40;42.30
77865;DHT22;67061;48.524;9.040;2023-06-04T11:35:02;23.60;42.60
77865;DHT22;67061;48.524;9.040;2023-06-04T11:37:30;23.50;41.40
77865;DHT22;67061;48.524;9.040;2023-06-04T11:39:58;23.50;42.30
77865;DHT22;67061;48.524;9.040;2023-06-04T11:42:27;23.50;41.90
77865;DHT22;67061;48.524;9.040;2023-06-04T11:44:55;23.50;40.50
77865;DHT22;67061;48.524;9.040;2023-06-04T11:47:23;23.50;40.70
77865;DHT22;67061;48.524;9.040;2023-06-04T11:49:55;23.50;40.90
77865;DHT22;67061;48.524;9.040;2023-06-04T11:52:22;23.50;41.20
77865;DHT22;67061;48.524;9.040;2023-06-04T11:54:49;23.60;42.50
77865;DHT22;67061;48.524;9.040;2023-06-04T11:57:17;23.80;41.40
77865;DHT22;67061;48.524;9.040;2023-06-04T11:59:44;24.00;41.00
77865;DHT22;67061;48.524;9.040;2023-06-04T12:02:11;24.20;39.60
77865;DHT22;67061;48.524;9.040;2023-06-04T12:04:40;24.40;39.70
77865;DHT22;67061;48.524;9.040;2023-06-04T12:07:08;24.60;40.90
77865;DHT22;67061;48.524;9.040;2023-06-04T12:09:36;24.70;39.20
77865;DHT22;67061;48.524;9.040;2023-06-04T12:12:05;24.60;39.30
77865;DHT22;67061;48.524;9.040;2023-06-04T12:14:33;24.50;38.70
77865;DHT22;67061;48.524;9.040;2023-06-04T12:17:01;24.40;39.90
77865;DHT22;67061;48.524;9.040;2023-06-04T12:19:28;24.70;41.10
77865;DHT22;67061;48.524;9.040;2023-06-04T12:22:01;24.80;38.20
77865;DHT22;67061;48.524;9.040;2023-06-04T12:24:33;24.40;38.40
77865;DHT22;67061;48.524;9.040;2023-06-04T12:27:02;24.40;38.90
77865;DHT22;67061;48.524;9.040;2023-06-04T12:29:29;24.50;39.20
77865;DHT22;67061;48.524;9.040;2023-06-04T12:32:02;24.50;37.90
77865;DHT22;67061;48.524;9.040;2023-06-04T12:34:30;24.80;39.20
77865;DHT22;67061;48.524;9.040;2023-06-04T12:36:57;24.90;36.90
77865;DHT22;67061;48.524;9.040;2023-06-04T12:39:24;24.50;37.00
77865;DHT22;67061;48.524;9.040;2023-06-04T12:41:52;24.40;38.60
77865;DHT22;67061;48.524;9.040;2023-06-04T12:44:19;24.40;38.70
77865;DHT22;67061;48.524;9.040;2023-06-04T12:46:46;24.50;38.50
77865;DHT22;67061;48.524;9.040;2023-06-04T12:49:13;24.70;38.40
77865;DHT22;67061;48.524;9.040;2023-06-04T12:51:40;25.00;38.90
77865;DHT22;67061;48.524;9.040;2023-06-04T12:54:07;25.00;37.70
77865;DHT22;67061;48.524;9.040;2023-06-04T12:56:34;25.00;37.10
77865;DHT22;67061;48.524;9.040;2023-06-04T12:59:03;24.70;37.00
77865;DHT22;67061;48.524;9.040;2023-06-04T13:01:29;24.60;38.60
77865;DHT22;67061;48.524;9.040;2023-06-04T13:03:56;24.70;38.40
77865;DHT22;67061;48.524;9.040;2023-06-04T13:06:23;24.80;37.00
77865;DHT22;67061;48.524;9.040;2023-06-04T13:08:50;24.80;38.20
77865;DHT22;67061;48.524;9.040;2023-06-04T13:11:17;24.80;37.60
77865;DHT22;67061;48.524;9.040;2023-06-04T13:13:44;24.80;37.20
77865;DHT22;67061;48.524;9.040;2023-06-04T13:16:13;24.50;35.90
77865;DHT22;67061;48.524;9.040;2023-06-04T13:18:39;24.40;36.60
77865;DHT22;67061;48.524;9.040;2023-06-04T13:21:06;24.60;35.20
77865;DHT22;67061;48.524;9.040;2023-06-04T13:23:33;24.40;35.10
77865;DHT22;67061;48.524;9.040;2023-06-04T13:26:00;24.60;37.20
77865;DHT22;67061;48.524;9.040;2023-06-04T13:28:27;24.70;35.10
77865;DHT22;67061;48.524;9.040;2023-06-04T13:30:54;24.60;36.40
77865;DHT22;67061;48.524;9.040;2023-06-04T13:33:22;24.60;35.50
77865;DHT22;67061;48.524;9.040;2023-06-04T13:35:49;24.60;36.30
77865;DHT22;67061;48.524;9.040;2023-06-04T13:38:19;24.70;35.10
77865;DHT22;67061;48.524;9.040;2023-06-04T13:40:46;25.00;35.50
77865;DHT22;67061;48.524;9.040;2023-06-04T13:43:13;25.00;34.50
77865;DHT22;67061;48.524;9.040;2023-06-04T13:45:41;25.00;34.90
77865;DHT22;67061;48.524;9.040;2023-06-04T13:48:10;25.10;34.00
77865;DHT22;67061;48.524;9.040;2023-06-04T13:50:38;25.20;34.80
77865;DHT22;67061;48.524;9.040;2023-06-04T13:53:05;25.40;33.20
77865;DHT22;67061;48.524;9.040;2023-06-04T13:55:32;25.30;32.40
77865;DHT22;67061;48.524;9.040;2023-06-04T13:57:59;25.20;33.20
77865;DHT22;67061;48.524;9.040;2023-06-04T14:00:26;25.10;34.70
77865;DHT22;67061;48.524;9.040;2023-06-04T14:02:55;25.10;33.60
77865;DHT22;67061;48.524;9.040;2023-06-04T14:05:25;25.00;34.00
77865;DHT22;67061;48.524;9.040;2023-06-04T14:07:55;25.00;34.30
77865;DHT22;67061;48.524;9.040;2023-06-04T14:10:22;25.00;34.10
77865;DHT22;67061;48.524;9.040;2023-06-04T14:12:48;25.00;34.20
77865;DHT22;67061;48.524;9.040;2023-06-04T14:15:15;25.00;35.00
77865;DHT22;67061;48.524;9.040;2023-06-04T14:17:42;25.20;32.70
77865;DHT22;67061;48.524;9.040;2023-06-04T14:20:09;25.30;34.60
77865;DHT22;67061;48.524;9.040;2023-06-04T14:22:37;25.40;32.10
77865;DHT22;67061;48.524;9.040;2023-06-04T14:25:06;25.20;32.50
77865;DHT22;67061;48.524;9.040;2023-06-04T14:27:34;25.20;32.90
77865;DHT22;67061;48.524;9.040;2023-06-04T14:30:02;25.30;33.60
77865;DHT22;67061;48.524;9.040;2023-06-04T14:32:29;25.40;34.90
77865;DHT22;67061;48.524;9.040;2023-06-04T14:34:57;25.60;33.20
77865;DHT22;67061;48.524;9.040;2023-06-04T14:37:24;25.60;32.60
77865;DHT22;67061;48.524;9.040;2023-06-04T14:39:51;25.60;31.90
77865;DHT22;67061;48.524;9.040;2023-06-04T14:42:19;25.40;31.80
77865;DHT22;67061;48.524;9.040;2023-06-04T14:44:46;25.50;32.30
77865;DHT22;67061;48.524;9.040;2023-06-04T14:47:13;25.40;31.90
77865;DHT22;67061;48.524;9.040;2023-06-04T14:49:40;25.50;33.90
77865;DHT22;67061;48.524;9.040;2023-06-04T14:52:07;25.60;32.60
77865;DHT22;67061;48.524;9.040;2023-06-04T14:54:34;25.70;33.40
77865;DHT22;67061;48.524;9.040;2023-06-04T14:57:01;25.80;32.70
77865;DHT22;67061;48.524;9.040;2023-06-04T14:59:30;25.60;32.80
77865;DHT22;67061;48.524;9.040;2023-06-04T15:02:00;25.60;32.80
77865;DHT22;67061;48.524;9.040;2023-06-04T15:04:27;25.50;31.80
77865;DHT22;67061;48.524;9.040;2023-06-04T15:06:54;25.30;33.00
77865;DHT22;67061;48.524;9.040;2023-06-04T15:09:21;25.50;32.80
77865;DHT22;67061;48.524;9.040;2023-06-04T15:11:48;25.70;32.50
77865;DHT22;67061;48.524;9.040;2023-06-04T15:14:15;25.90;31.70
77865;DHT22;67061;48.524;9.040;2023-06-04T15:16:43;25.80;31.80
77865;DHT22;67061;48.524;9.040;2023-06-04T15:19:10;25.60;30.90
77865;DHT22;67061;48.524;9.040;2023-06-04T15:21:37;25.50;32.10
77865;DHT22;67061;48.524;9.040;2023-06-04T15:24:04;25.50;31.90
77865;DHT22;67061;48.524;9.040;2023-06-04T15:26:31;25.60;33.20
77865;DHT22;67061;48.524;9.040;2023-06-04T15:28:58;25.80;31.70
77865;DHT22;67061;48.524;9.040;2023-06-04T15:31:24;25.60;31.60
77865;DHT22;67061;48.524;9.040;2023-06-04T15:33:53;25.60;32.50
77865;DHT22;67061;48.524;9.040;2023-06-04T15:36:20;25.60;31.70